createdAt,value
2019-02-15T00:01:49.676Z,4.40
2019-02-15T00:04:15.693Z,4.50
2019-02-15T00:06:41.723Z,4.40
2019-02-15T00:09:07.741Z,4.40
2019-02-15T00:11:33.772Z,4.30
2019-02-15T00:13:59.783Z,4.20
2019-02-15T00:16:25.834Z,4.10
2019-02-15T00:18:56.865Z,4.00
2019-02-15T00:21:24.307Z,4.00
2019-02-15T00:23:50.323Z,3.90
2019-02-15T00:26:16.747Z,3.90
2019-02-15T00:28:42.971Z,3.80
2019-02-15T00:31:10.915Z,3.80
2019-02-15T00:33:36.960Z,3.70
2019-02-15T00:36:02.959Z,3.70
2019-02-15T00:38:29.052Z,3.70
2019-02-15T00:40:55.073Z,3.60
2019-02-15T00:43:22.487Z,3.60
2019-02-15T00:46:07.146Z,3.60
2019-02-15T00:48:33.179Z,3.50
2019-02-15T00:51:06.827Z,3.50
2019-02-15T00:53:34.763Z,3.40
2019-02-15T00:56:11.616Z,3.50
2019-02-15T00:58:39.750Z,3.40
2019-02-15T01:01:10.427Z,3.40
2019-02-15T01:03:41.123Z,3.50
2019-02-15T01:06:14.903Z,3.40
2019-02-15T01:08:42.841Z,3.30
2019-02-15T01:11:19.371Z,3.30
2019-02-15T01:13:45.403Z,3.20
2019-02-15T01:16:17.283Z,3.20
2019-02-15T01:18:43.324Z,3.30
2019-02-15T01:21:09.423Z,3.20
2019-02-15T01:23:35.464Z,3.10
2019-02-15T01:26:05.895Z,3.10
2019-02-15T01:28:33.827Z,3.10
2019-02-15T01:31:18.253Z,3.10
2019-02-15T01:34:02.932Z,3.10
2019-02-15T01:36:30.851Z,3.10
2019-02-15T01:39:13.886Z,3.00
2019-02-15T01:41:50.618Z,3.00
2019-02-15T01:44:18.600Z,3.00
2019-02-15T01:46:46.560Z,3.10
2019-02-15T01:49:12.571Z,3.10
2019-02-15T01:51:38.598Z,3.10
2019-02-15T01:54:04.623Z,3.00
2019-02-15T01:56:30.654Z,3.10
2019-02-15T01:58:56.691Z,3.00
2019-02-15T02:01:23.710Z,3.10
2019-02-15T02:03:50.015Z,3.00
2019-02-15T02:06:16.035Z,3.00
2019-02-15T02:08:42.059Z,3.00
2019-02-15T02:11:08.080Z,2.90
2019-02-15T02:13:34.128Z,2.90
2019-02-15T02:16:00.204Z,2.80
2019-02-15T02:18:26.283Z,2.90
2019-02-15T02:20:52.299Z,2.90
2019-02-15T02:23:18.431Z,2.90
2019-02-15T02:25:44.569Z,2.90
2019-02-15T02:28:10.603Z,2.90
2019-02-15T02:30:37.787Z,2.80
2019-02-15T02:33:03.841Z,2.70
2019-02-15T02:35:29.860Z,2.70
2019-02-15T02:37:55.915Z,2.80
2019-02-15T02:40:22.016Z,2.70
2019-02-15T02:42:48.047Z,2.70
2019-02-15T02:45:14.072Z,2.70
2019-02-15T02:47:40.104Z,2.70
2019-02-15T02:50:07.192Z,2.60
2019-02-15T02:52:33.223Z,2.70
2019-02-15T02:54:59.282Z,2.60
2019-02-15T02:57:25.372Z,2.60
2019-02-15T02:59:51.487Z,2.60
2019-02-15T03:02:17.499Z,2.60
2019-02-15T03:04:43.531Z,2.50
2019-02-15T03:07:09.545Z,2.60
2019-02-15T03:09:35.585Z,2.50
2019-02-15T03:12:01.595Z,2.50
2019-02-15T03:14:27.632Z,2.40
2019-02-15T03:16:53.639Z,2.40
2019-02-15T03:19:19.667Z,2.30
2019-02-15T03:21:45.688Z,2.30
2019-02-15T03:24:11.750Z,2.20
2019-02-15T03:26:37.767Z,2.20
2019-02-15T03:29:03.807Z,2.20
2019-02-15T03:31:29.833Z,2.20
2019-02-15T03:33:55.968Z,2.20
2019-02-15T03:36:29.870Z,2.20
2019-02-15T03:39:16.167Z,2.20
2019-02-15T03:41:42.193Z,2.10
2019-02-15T03:44:08.218Z,2.10
2019-02-15T03:46:34.324Z,2.10
2019-02-15T03:49:00.368Z,2.10
2019-02-15T03:51:26.476Z,2.10
2019-02-15T03:53:52.512Z,2.10
2019-02-15T03:56:18.523Z,2.10
2019-02-15T03:58:45.059Z,2.10
2019-02-15T04:01:11.077Z,2.10
2019-02-15T04:03:37.209Z,2.20
2019-02-15T04:06:03.235Z,2.20
2019-02-15T04:08:29.263Z,2.20
2019-02-15T04:10:55.297Z,2.20
2019-02-15T04:13:21.306Z,2.20
2019-02-15T04:15:47.561Z,2.20
2019-02-15T04:18:13.568Z,2.20
2019-02-15T04:20:39.609Z,2.20
2019-02-15T04:23:05.628Z,2.20
2019-02-15T04:25:31.656Z,2.10
2019-02-15T04:27:57.670Z,2.00
2019-02-15T04:30:23.699Z,2.10
2019-02-15T04:32:49.713Z,2.10
2019-02-15T04:35:15.762Z,2.00
2019-02-15T04:37:41.771Z,2.00
2019-02-15T04:40:08.181Z,2.10
2019-02-15T04:42:34.230Z,2.00
2019-02-15T04:45:00.420Z,1.90
2019-02-15T04:47:26.484Z,2.00
2019-02-15T04:49:52.691Z,2.00
2019-02-15T04:52:18.696Z,2.00
2019-02-15T04:54:44.754Z,2.00
2019-02-15T04:57:10.795Z,2.00
2019-02-15T04:59:36.834Z,2.00
2019-02-15T05:02:02.851Z,2.00
2019-02-15T05:04:51.475Z,2.00
2019-02-15T05:07:17.640Z,2.00
2019-02-15T05:09:43.738Z,2.00
2019-02-15T05:12:09.751Z,2.00
2019-02-15T05:14:35.787Z,1.90
2019-02-15T05:17:01.802Z,1.90
2019-02-15T05:19:27.828Z,1.90
2019-02-15T05:21:53.951Z,1.90
2019-02-15T05:24:21.259Z,1.90
2019-02-15T05:26:47.962Z,1.90
2019-02-15T05:29:15.397Z,1.90
2019-02-15T05:31:41.408Z,1.80
2019-02-15T05:34:07.423Z,2.00
2019-02-15T05:36:33.455Z,2.00
2019-02-15T05:38:59.471Z,1.90
2019-02-15T05:41:25.503Z,1.90
2019-02-15T05:43:51.516Z,1.90
2019-02-15T05:46:17.548Z,1.90
2019-02-15T05:48:43.572Z,2.00
2019-02-15T05:51:11.583Z,2.00
2019-02-15T05:53:37.599Z,2.10
2019-02-15T05:56:03.636Z,2.10
2019-02-15T05:58:29.643Z,2.00
2019-02-15T06:00:55.680Z,1.90
2019-02-15T06:03:21.692Z,1.80
2019-02-15T06:05:47.735Z,1.80
2019-02-15T06:08:13.751Z,1.80
2019-02-15T06:10:39.783Z,1.80
2019-02-15T06:13:05.800Z,1.80
2019-02-15T06:15:31.869Z,1.90
2019-02-15T06:17:57.883Z,1.90
2019-02-15T06:20:43.906Z,2.00
2019-02-15T06:23:10.060Z,2.10
2019-02-15T06:25:36.234Z,2.00
2019-02-15T06:28:02.349Z,2.00
2019-02-15T06:30:28.394Z,2.00
2019-02-15T06:32:54.403Z,2.00
2019-02-15T06:35:20.444Z,2.10
2019-02-15T06:37:46.459Z,2.10
2019-02-15T06:40:12.499Z,2.30
2019-02-15T06:42:38.511Z,2.40
2019-02-15T06:45:05.367Z,2.50
2019-02-15T06:47:31.376Z,2.60
2019-02-15T06:49:57.412Z,2.70
2019-02-15T06:52:23.427Z,2.70
2019-02-15T06:54:49.478Z,2.80
2019-02-15T06:57:15.487Z,2.70
2019-02-15T06:59:49.269Z,2.70
2019-02-15T07:02:17.199Z,2.70
2019-02-15T07:04:50.673Z,2.70
2019-02-15T07:07:16.748Z,2.70
2019-02-15T07:09:42.753Z,2.80
2019-02-15T07:12:08.816Z,2.90
2019-02-15T07:14:34.815Z,2.90
2019-02-15T07:17:02.024Z,2.90
2019-02-15T07:19:28.036Z,2.90
2019-02-15T07:21:54.069Z,3.00
2019-02-15T07:24:20.083Z,3.00
2019-02-15T07:26:46.124Z,3.00
2019-02-15T07:29:12.135Z,3.10
2019-02-15T07:31:38.164Z,3.10
2019-02-15T07:34:04.178Z,3.20
2019-02-15T07:36:30.222Z,3.30
2019-02-15T07:38:56.242Z,3.40
2019-02-15T07:41:22.299Z,3.60
2019-02-15T07:43:48.307Z,3.70
2019-02-15T07:46:14.339Z,3.80
2019-02-15T07:48:40.366Z,3.90
2019-02-15T07:51:09.631Z,4.00
2019-02-15T07:53:34.315Z,4.00
2019-02-15T07:56:00.371Z,4.00
2019-02-15T07:58:26.393Z,4.10
2019-02-15T08:00:52.427Z,4.20
2019-02-15T08:03:18.441Z,4.40
2019-02-15T08:05:44.777Z,4.50
2019-02-15T08:08:10.792Z,4.60
2019-02-15T08:10:36.820Z,4.70
2019-02-15T08:13:02.845Z,4.80
2019-02-15T08:15:35.928Z,4.90
2019-02-15T08:17:56.798Z,5.10
2019-02-15T08:20:22.813Z,5.10
2019-02-15T08:22:48.840Z,5.20
2019-02-15T08:25:14.939Z,5.30
2019-02-15T08:27:40.983Z,5.40
2019-02-15T08:30:09.305Z,5.50
2019-02-15T08:32:35.355Z,5.50
2019-02-15T08:35:01.388Z,5.60
2019-02-15T08:37:27.416Z,5.70
2019-02-15T08:39:53.435Z,5.90
2019-02-15T08:42:19.458Z,5.90
2019-02-15T08:44:45.467Z,6.00
2019-02-15T08:47:11.499Z,6.10
2019-02-15T08:49:37.516Z,6.20
2019-02-15T08:52:03.651Z,6.20
2019-02-15T08:54:29.667Z,6.30
2019-02-15T08:56:55.703Z,6.40
2019-02-15T08:59:21.711Z,6.50
2019-02-15T09:01:49.648Z,6.60
2019-02-15T09:04:15.657Z,6.70
2019-02-15T09:06:41.691Z,6.70
2019-02-15T09:09:07.805Z,6.80
2019-02-15T09:11:33.836Z,6.90
2019-02-15T09:13:59.875Z,6.90
2019-02-15T09:16:25.963Z,7.00
2019-02-15T09:18:51.963Z,7.10
2019-02-15T09:21:17.975Z,7.20
2019-02-15T09:23:44.007Z,7.30
2019-02-15T09:26:17.992Z,7.40
2019-02-15T09:28:39.901Z,7.50
2019-02-15T09:31:05.920Z,7.50
2019-02-15T09:33:32.055Z,7.60
2019-02-15T09:35:58.092Z,7.80
2019-02-15T09:38:24.119Z,7.90
2019-02-15T09:40:50.211Z,8.00
2019-02-15T09:43:16.308Z,8.00
2019-02-15T09:45:42.326Z,8.10
2019-02-15T09:48:08.359Z,8.20
2019-02-15T09:50:34.366Z,8.30
2019-02-15T09:53:01.137Z,8.40
2019-02-15T09:55:27.223Z,8.40
2019-02-15T09:57:53.259Z,8.50
2019-02-15T10:00:19.274Z,8.60
2019-02-15T10:02:45.304Z,8.70
2019-02-15T10:05:11.339Z,8.70
2019-02-15T10:07:37.375Z,8.80
2019-02-15T10:10:06.511Z,8.80
2019-02-15T10:12:32.521Z,8.90
2019-02-15T10:14:58.567Z,9.00
2019-02-15T10:17:24.580Z,9.10
2019-02-15T10:19:50.611Z,9.20
2019-02-15T10:22:16.712Z,9.30
2019-02-15T10:24:42.727Z,9.40
2019-02-15T10:27:08.764Z,9.50
2019-02-15T10:29:34.797Z,9.60
2019-02-15T10:32:01.213Z,9.60
2019-02-15T10:34:27.230Z,9.70
2019-02-15T10:36:53.266Z,9.80
2019-02-15T10:39:19.285Z,9.80
2019-02-15T10:41:45.311Z,9.90
2019-02-15T10:44:11.323Z,10.00
2019-02-15T10:46:38.040Z,10.00
2019-02-15T10:49:04.264Z,10.10
2019-02-15T10:51:30.294Z,10.20
2019-02-15T10:53:56.375Z,10.20
2019-02-15T10:56:22.403Z,10.30
2019-02-15T10:58:48.419Z,10.40
2019-02-15T11:01:14.452Z,10.50
2019-02-15T11:03:40.475Z,10.60
2019-02-15T11:06:06.554Z,10.70
2019-02-15T11:08:32.650Z,10.70
2019-02-15T11:10:58.679Z,10.80
2019-02-15T11:13:24.691Z,10.90
2019-02-15T11:15:50.723Z,11.00
2019-02-15T11:18:16.754Z,11.10
2019-02-15T11:20:42.784Z,11.10
2019-02-15T11:23:08.799Z,11.20
2019-02-15T11:25:34.832Z,11.30
2019-02-15T11:28:00.847Z,11.30
2019-02-15T11:30:26.959Z,11.40
2019-02-15T11:32:52.996Z,11.50
2019-02-15T11:35:19.005Z,11.60
2019-02-15T11:37:45.035Z,11.70
2019-02-15T11:40:12.652Z,11.70
2019-02-15T11:42:38.775Z,11.80
2019-02-15T11:45:12.370Z,11.80
2019-02-15T11:47:38.387Z,11.90
2019-02-15T11:50:07.515Z,12.00
2019-02-15T11:52:33.563Z,12.00
2019-02-15T11:54:59.575Z,12.00
2019-02-15T11:57:25.605Z,12.10
2019-02-15T11:59:51.615Z,12.10
2019-02-15T12:02:17.654Z,12.20
2019-02-15T12:04:43.664Z,12.20
2019-02-15T12:07:09.744Z,12.20
2019-02-15T12:09:35.751Z,12.30
2019-02-15T12:12:10.113Z,12.30
2019-02-15T12:14:29.695Z,12.40
2019-02-15T12:16:55.775Z,12.40
2019-02-15T12:19:21.791Z,12.50
2019-02-15T12:21:48.039Z,12.60
2019-02-15T12:24:14.163Z,12.60
2019-02-15T12:26:40.201Z,12.70
2019-02-15T12:29:06.348Z,12.70
2019-02-15T12:31:32.427Z,12.70
2019-02-15T12:33:58.447Z,12.80
2019-02-15T12:36:24.478Z,12.90
2019-02-15T12:38:50.499Z,12.90
2019-02-15T12:41:16.610Z,13.00
2019-02-15T12:43:42.659Z,13.00
2019-02-15T12:46:08.671Z,13.00
2019-02-15T12:48:34.719Z,13.10
2019-02-15T12:51:00.789Z,13.10
2019-02-15T12:53:26.819Z,13.20
2019-02-15T12:55:52.873Z,13.20
2019-02-15T12:58:18.895Z,13.30
2019-02-15T13:00:44.911Z,13.30
2019-02-15T13:03:10.955Z,13.30
2019-02-15T13:05:36.976Z,13.30
2019-02-15T13:08:03.104Z,13.30
2019-02-15T13:10:31.019Z,13.40
2019-02-15T13:12:57.132Z,13.40
2019-02-15T13:15:23.904Z,13.40
2019-02-15T13:17:49.963Z,13.50
2019-02-15T13:20:16.016Z,13.50
2019-02-15T13:22:42.052Z,13.50
2019-02-15T13:25:08.268Z,13.60
2019-02-15T13:27:34.330Z,13.60
2019-02-15T13:30:00.377Z,13.60
2019-02-15T13:32:26.497Z,13.60
2019-02-15T13:34:52.511Z,13.60
2019-02-15T13:37:18.551Z,13.70
2019-02-15T13:39:44.587Z,13.70
2019-02-15T13:42:10.627Z,13.70
2019-02-15T13:44:36.667Z,13.70
2019-02-15T13:47:02.764Z,13.70
2019-02-15T13:49:28.840Z,13.70
2019-02-15T13:51:54.862Z,13.70
2019-02-15T13:54:20.920Z,13.70
2019-02-15T13:56:46.925Z,13.70
2019-02-15T13:59:12.975Z,13.80
2019-02-15T14:01:38.991Z,13.80
2019-02-15T14:04:05.028Z,13.80
2019-02-15T14:06:31.046Z,13.80
2019-02-15T14:08:57.112Z,13.80
2019-02-15T14:11:23.123Z,13.80
2019-02-15T14:13:49.167Z,13.80
2019-02-15T14:16:15.183Z,13.70
2019-02-15T14:18:41.332Z,13.80
2019-02-15T14:21:07.344Z,13.80
2019-02-15T14:23:33.400Z,13.80
2019-02-15T14:25:59.419Z,13.80
2019-02-15T14:28:25.460Z,13.80
2019-02-15T14:30:51.491Z,13.80
2019-02-15T14:33:17.603Z,13.80
2019-02-15T14:35:43.622Z,13.80
2019-02-15T14:38:09.631Z,13.80
2019-02-15T14:40:35.663Z,13.70
2019-02-15T14:43:01.714Z,13.80
2019-02-15T14:45:27.723Z,13.80
2019-02-15T14:47:55.236Z,13.80
2019-02-15T14:50:21.524Z,13.80
2019-02-15T14:52:47.535Z,13.80
2019-02-15T14:55:14.555Z,13.80
2019-02-15T14:57:40.579Z,13.80
2019-02-15T15:00:10.429Z,13.80
2019-02-15T15:02:36.500Z,13.80
2019-02-15T15:05:03.739Z,13.80
2019-02-15T15:07:29.751Z,13.80
2019-02-15T15:09:55.787Z,13.80
2019-02-15T15:12:21.796Z,13.80
2019-02-15T15:14:47.838Z,13.70
2019-02-15T15:17:13.851Z,13.70
2019-02-15T15:19:39.917Z,13.70
2019-02-15T15:22:05.971Z,13.60
2019-02-15T15:24:32.012Z,13.60
2019-02-15T15:26:58.026Z,13.60
2019-02-15T15:29:24.078Z,13.50
2019-02-15T15:31:50.095Z,13.50
2019-02-15T15:34:16.143Z,13.50
2019-02-15T15:36:42.165Z,13.50
2019-02-15T15:39:08.195Z,13.40
2019-02-15T15:41:34.231Z,13.40
2019-02-15T15:44:00.264Z,13.40
2019-02-15T15:46:26.285Z,13.40
2019-02-15T15:48:52.322Z,13.40
2019-02-15T15:51:18.395Z,13.30
2019-02-15T15:53:44.483Z,13.30
2019-02-15T15:56:10.501Z,13.30
2019-02-15T15:58:36.539Z,13.20
2019-02-15T16:01:02.650Z,13.20
2019-02-15T16:03:28.667Z,13.20
2019-02-15T16:05:54.791Z,13.20
2019-02-15T16:08:20.804Z,13.10
2019-02-15T16:10:47.110Z,13.00
2019-02-15T16:13:13.255Z,12.90
2019-02-15T16:15:39.328Z,12.80
2019-02-15T16:18:05.379Z,12.80
2019-02-15T16:20:31.412Z,12.70
2019-02-15T16:22:57.424Z,12.60
2019-02-15T16:25:23.483Z,12.50
2019-02-15T16:27:49.491Z,12.50
2019-02-15T16:30:15.724Z,12.40
2019-02-15T16:32:41.740Z,12.30
2019-02-15T16:35:08.275Z,12.30
2019-02-15T16:37:34.291Z,12.20
2019-02-15T16:40:00.368Z,12.10
2019-02-15T16:42:26.447Z,12.00
2019-02-15T16:44:52.571Z,11.90
2019-02-15T16:47:18.597Z,11.80
2019-02-15T16:49:44.624Z,11.80
2019-02-15T16:52:10.656Z,11.70
2019-02-15T16:54:36.760Z,11.60
2019-02-15T16:57:02.788Z,11.50
2019-02-15T16:59:28.823Z,11.40
2019-02-15T17:01:54.852Z,11.30
2019-02-15T17:04:20.867Z,11.20
2019-02-15T17:06:47.748Z,11.20
2019-02-15T17:09:16.893Z,11.10
2019-02-15T17:11:42.941Z,11.00
2019-02-15T17:14:09.151Z,10.90
2019-02-15T17:16:35.826Z,10.80
2019-02-15T17:19:02.307Z,10.70
2019-02-15T17:21:28.416Z,10.70
2019-02-15T17:23:54.428Z,10.60
2019-02-15T17:26:20.464Z,10.40
2019-02-15T17:28:46.567Z,10.30
2019-02-15T17:31:12.615Z,10.30
2019-02-15T17:33:38.623Z,10.20
2019-02-15T17:36:04.663Z,10.20
2019-02-15T17:38:30.676Z,10.10
2019-02-15T17:40:56.811Z,10.10
2019-02-15T17:43:22.828Z,10.00
2019-02-15T17:45:48.868Z,10.00
2019-02-15T17:48:14.884Z,9.80
2019-02-15T17:50:40.923Z,9.70
2019-02-15T17:53:06.943Z,9.50
2019-02-15T17:55:32.979Z,9.30
2019-02-15T17:57:59.032Z,9.20
2019-02-15T18:00:26.991Z,9.20
2019-02-15T18:02:52.992Z,9.00
2019-02-15T18:05:19.037Z,8.90
2019-02-15T18:07:47.249Z,8.80
2019-02-15T18:10:13.275Z,8.70
2019-02-15T18:12:39.316Z,8.60
2019-02-15T18:15:05.395Z,8.50
2019-02-15T18:17:31.431Z,8.40
2019-02-15T18:19:57.453Z,8.30
2019-02-15T18:22:23.504Z,8.20
2019-02-15T18:24:49.537Z,8.10
2019-02-15T18:27:15.575Z,8.10
2019-02-15T18:29:41.596Z,8.00
2019-02-15T18:32:07.639Z,8.00
2019-02-15T18:34:33.654Z,8.00
2019-02-15T18:37:00.055Z,7.90
2019-02-15T18:39:26.124Z,7.90
2019-02-15T18:41:52.163Z,7.90
2019-02-15T18:44:18.196Z,7.80
2019-02-15T18:46:44.232Z,7.80
2019-02-15T18:49:18.989Z,7.80
2019-02-15T18:51:38.248Z,7.70
2019-02-15T18:54:04.272Z,7.70
2019-02-15T18:56:31.363Z,7.70
2019-02-15T18:58:57.383Z,7.60
2019-02-15T19:01:23.487Z,7.60
2019-02-15T19:03:49.504Z,7.60
2019-02-15T19:06:15.547Z,7.60
2019-02-15T19:08:41.555Z,7.40
2019-02-15T19:11:07.683Z,7.40
2019-02-15T19:13:33.723Z,7.40
2019-02-15T19:15:59.763Z,7.40
2019-02-15T19:18:25.794Z,7.30
2019-02-15T19:20:51.921Z,7.20
2019-02-15T19:23:17.926Z,7.20
2019-02-15T19:25:43.946Z,7.10
2019-02-15T19:28:10.036Z,7.10
2019-02-15T19:30:36.053Z,7.00
2019-02-15T19:33:02.095Z,6.90
2019-02-15T19:35:28.139Z,6.90
2019-02-15T19:37:54.239Z,6.80
2019-02-15T19:40:20.255Z,6.80
2019-02-15T19:42:48.608Z,6.70
2019-02-15T19:45:14.725Z,6.70
2019-02-15T19:47:40.759Z,6.70
2019-02-15T19:50:09.687Z,6.60
2019-02-15T19:52:35.724Z,6.50
2019-02-15T19:55:02.604Z,6.50
2019-02-15T19:57:28.646Z,6.40
2019-02-15T19:59:54.660Z,6.40
2019-02-15T20:02:21.777Z,6.30
2019-02-15T20:04:47.903Z,6.20
2019-02-15T20:07:13.937Z,6.20
2019-02-15T20:09:40.062Z,6.20
2019-02-15T20:12:06.103Z,6.10
2019-02-15T20:14:32.145Z,6.10
2019-02-15T20:16:58.160Z,6.10
2019-02-15T20:19:24.168Z,6.00
2019-02-15T20:21:50.239Z,6.00
2019-02-15T20:24:16.316Z,5.90
2019-02-15T20:26:42.385Z,5.90
2019-02-15T20:29:08.399Z,5.80
2019-02-15T20:31:34.434Z,5.80
2019-02-15T20:34:00.478Z,5.70
2019-02-15T20:36:26.511Z,5.70
2019-02-15T20:38:52.535Z,5.70
2019-02-15T20:41:18.576Z,5.60
2019-02-15T20:43:44.607Z,5.60
2019-02-15T20:46:10.615Z,5.50
2019-02-15T20:48:36.661Z,5.50
2019-02-15T20:51:02.667Z,5.40
2019-02-15T20:53:28.711Z,5.40
2019-02-15T20:55:54.746Z,5.40
2019-02-15T20:58:20.795Z,5.40
2019-02-15T21:00:47.089Z,5.40
2019-02-15T21:03:13.247Z,5.40
2019-02-15T21:05:39.264Z,5.30
2019-02-15T21:08:05.313Z,5.30
2019-02-15T21:10:31.325Z,5.30
2019-02-15T21:12:57.368Z,5.30
2019-02-15T21:15:24.290Z,5.30
2019-02-15T21:17:50.663Z,5.30
2019-02-15T21:20:16.671Z,5.30
2019-02-15T21:22:42.709Z,5.20
2019-02-15T21:25:10.624Z,5.20
2019-02-15T21:27:36.664Z,5.20
2019-02-15T21:30:06.371Z,5.10
2019-02-15T21:32:34.573Z,5.10
2019-02-15T21:35:00.656Z,5.10
2019-02-15T21:37:26.708Z,5.00
2019-02-15T21:39:52.712Z,5.00
2019-02-15T21:42:18.765Z,4.90
2019-02-15T21:44:44.783Z,4.90
2019-02-15T21:47:10.843Z,4.80
2019-02-15T21:49:38.487Z,4.80
2019-02-15T21:52:04.800Z,4.60
2019-02-15T21:54:30.815Z,4.60
2019-02-15T21:56:56.823Z,4.60
2019-02-15T21:59:22.859Z,4.60
2019-02-15T22:01:48.920Z,4.60
2019-02-15T22:04:14.956Z,4.50
2019-02-15T22:06:40.980Z,4.60
2019-02-15T22:09:07.115Z,4.60
2019-02-15T22:11:33.127Z,4.50
2019-02-15T22:13:59.255Z,4.50
2019-02-15T22:16:25.269Z,4.50
2019-02-15T22:18:51.320Z,4.50
2019-02-15T22:21:17.351Z,4.40
2019-02-15T22:23:43.386Z,4.40
2019-02-15T22:26:09.397Z,4.40
2019-02-15T22:28:35.441Z,4.30
2019-02-15T22:31:01.512Z,4.30
2019-02-15T22:33:27.577Z,4.20
2019-02-15T22:35:53.633Z,4.20
2019-02-15T22:38:19.671Z,4.30
2019-02-15T22:40:45.783Z,4.20
2019-02-15T22:43:33.632Z,4.20
2019-02-15T22:45:59.648Z,4.20
2019-02-15T22:48:25.678Z,4.10
2019-02-15T22:50:51.687Z,4.10
2019-02-15T22:53:17.727Z,4.10
2019-02-15T22:55:43.761Z,4.10
2019-02-15T22:58:09.783Z,4.00
2019-02-15T23:00:52.516Z,4.00
2019-02-15T23:03:23.424Z,4.00
2019-02-15T23:05:49.541Z,4.00
2019-02-15T23:08:15.568Z,4.00
2019-02-15T23:10:41.595Z,3.90
2019-02-15T23:13:07.728Z,3.80
2019-02-15T23:15:33.739Z,3.80
2019-02-15T23:17:59.792Z,3.70
2019-02-15T23:20:25.807Z,3.70
2019-02-15T23:22:51.831Z,3.70
2019-02-15T23:25:17.868Z,3.60
2019-02-15T23:27:43.936Z,3.60
2019-02-15T23:30:09.950Z,3.60
2019-02-15T23:32:36.052Z,3.60
2019-02-15T23:35:02.551Z,3.60
2019-02-15T23:37:28.566Z,3.60
2019-02-15T23:39:54.588Z,3.50
2019-02-15T23:42:20.613Z,3.50
2019-02-15T23:44:46.645Z,3.40
2019-02-15T23:47:12.653Z,3.40
2019-02-15T23:49:38.688Z,3.40
2019-02-15T23:52:04.695Z,3.30
2019-02-15T23:54:30.736Z,3.30
2019-02-15T23:56:56.743Z,3.30
2019-02-15T23:59:22.775Z,3.30
